Flight Track Log - Related Links

Times and Time Zones

All times are in EDT time to prevent confusion due to time zone crossing. See the XOJ793 flight status page for this flight to view local times or setup timezone preferences in your user account.

Time Position Orientation Groundspeed Altitude Reporting Facility
EDT Latitude Longitude Course Direction KTS MPH feet Rate Location/Type
Fri 08:55:08 AM 27.6497 -80.4067 270° West 138 159 500  Level Miami Center
Fri 08:56:09 AM 27.6719 -80.3633 60° Northeast 208 239 2,600 2,341 Climbing Miami Center
Fri 08:57:11 AM 27.7328 -80.3650 359° North 228 262 5,300 2,419 Climbing Miami Center
Fri 08:58:13 AM 27.7322 -80.4450 270° West 252 290 7,600 1,707 Climbing Miami Center
Fri 08:59:14 AM 27.7200 -80.5269 260° West 272 313 8,800 1,122 Climbing Miami Center
Fri 09:00:00 AM 27.5667 -81.1512 270° West  Level FlightAware Approximate
Fri 09:00:16 AM 27.7067 -80.6194 261° West 284 327 9,900  Level Miami Center
Fri 09:01:18 AM 27.6922 -80.7172 261° West 310 357 11,300 1,512 Climbing Miami Center
Fri 09:02:19 AM 27.6764 -80.8258 261° West 334 384 13,000 1,756 Climbing Miami Center
Fri 09:03:21 AM 27.6600 -80.9397 261° West 351 404 14,900 1,742 Climbing Miami Center
Fri 09:04:23 AM 27.6428 -81.0550 260° West 359 413 16,600 1,463 Climbing Miami Center
Fri 09:05:24 AM 27.6261 -81.1622 260° West 360 414 17,900 1,171 Climbing Miami Center
Fri 09:06:26 AM 27.6097 -81.2722 260° West 369 425 19,000 1,258 Climbing Miami Center
Fri 09:07:28 AM 27.5889 -81.4086 260° West 385 443 20,500 1,512 Climbing Miami Center
Fri 09:08:29 AM 27.5689 -81.5386 260° West 397 457 22,100 1,463 Climbing Miami Center
Fri 09:09:31 AM 27.5486 -81.6683 260° West 401 461 23,500 1,317 Climbing Miami Center
Fri 09:10:32 AM 27.5297 -81.7911 260° West 411 473 24,800 1,317 Climbing Miami Center
Fri 09:11:34 AM 27.5081 -81.9264 260° West 418 481 26,200 1,210 Climbing Miami Center
Fri 09:12:36 AM 27.4867 -82.0650 260° West 424 488 27,300 1,122 Climbing Miami Center
Fri 09:13:37 AM 27.4644 -82.2064 260° West 439 505 28,500 1,171 Climbing Miami Center
Fri 09:14:39 AM 27.4433 -82.3397 260° West 445 512 29,700 1,073 Climbing Miami Center
Fri 09:15:40 AM 27.4558 -82.4831 276° West 450 518 30,700 1,171 Climbing Miami Center
Fri 09:16:42 AM 27.5094 -82.6217 294° West 463 533 32,100 1,317 Climbing Miami Center
Fri 09:17:43 AM 27.5617 -82.7622 293° West 463 533 33,400 1,073 Climbing Miami Center
Fri 09:18:45 AM 27.6108 -82.8900 293° West 469 540 34,300 1,113 Climbing Miami Center
Fri 09:19:47 AM 27.6633 -83.0281 293° West 475 547 35,700 1,415 Climbing Miami Center
Fri 09:20:48 AM 27.7075 -83.1689 290° West 476 548 37,200 1,171 Climbing Miami Center
Fri 09:21:50 AM 27.7386 -83.3158 283° West 477 549 38,100 1,210 Climbing Miami Center
Fri 09:22:52 AM 27.7489 -83.4675 274° West 472 543 39,700 1,561 Climbing Miami Center
Fri 09:23:53 AM 27.7636 -83.6442 275° West 476 548 41,300 1,268 Climbing Miami Center
Fri 09:24:55 AM 27.7744 -83.7908 275° West 473 544 42,300 829 Climbing Miami Center
Fri 09:25:56 AM 27.7872 -83.9358 276° West 468 539 43,000 341 Climbing Miami Center
Fri 09:26:58 AM 27.7994 -84.0836 275° West 469 540 43,000  Level Miami Center
Fri 09:28:00 AM 27.8100 -84.2367 274° West 485 558 43,000  Level Miami Center
Fri 09:29:01 AM 27.8228 -84.3917 275° West 490 564 43,000  Level Miami Center
Fri 09:30:03 AM 27.8336 -84.5478 275° West 498 573 43,000  Level Miami Center
Fri 09:30:45 AM 27.8453 -84.6833 276° West 502 578 43,000  Level Jacksonville Center
Fri 09:31:45 AM 27.8517 -84.8264 273° West 516 594 43,000  Level Jacksonville Center
Fri 09:32:45 AM 27.8639 -84.9864 275° West 516 594 43,000  Level Jacksonville Center
Fri 09:33:45 AM 27.8758 -85.1392 275° West 516 594 43,000  Level Jacksonville Center
Fri 09:34:45 AM 27.8981 -85.2947 279° West 516 594 43,000  Level Jacksonville Center
Fri 09:35:45 AM 27.9428 -85.4578 287° West 501 577 43,000  Level Jacksonville Center
Fri 09:36:45 AM 27.9878 -85.6117 288° West 508 585 43,000  Level Jacksonville Center
Fri 09:37:45 AM 28.0344 -85.7633 289° West 502 578 43,000  Level Jacksonville Center
Fri 09:38:45 AM 28.0792 -85.9106 289° West 502 578 43,000  Level Jacksonville Center
Fri 09:39:45 AM 28.1236 -86.0600 289° West 510 587 43,000  Level Jacksonville Center
Fri 09:40:45 AM 28.1678 -86.2075 289° West 509 586 43,000 50 Level Jacksonville Center
Fri 09:41:45 AM 28.2139 -86.3550 290° West 509 586 43,100 350 Climbing Jacksonville Center
Fri 09:42:45 AM 28.2578 -86.5047 288° West 509 586 43,700 550 Climbing Jacksonville Center
Fri 09:43:45 AM 28.2975 -86.6475 288° West 496 571 44,200 550 Climbing Jacksonville Center
Fri 09:44:45 AM 28.3411 -86.7956 289° West 491 565 44,800 400 Climbing Jacksonville Center
Fri 09:45:45 AM 28.3806 -86.9386 287° West 486 559 45,000 100 Climbing Jacksonville Center
Fri 09:46:45 AM 28.4258 -87.0842 290° West 486 559 45,000  Level Jacksonville Center
Fri 09:47:18 AM 28.4492 -87.1603 289° West 483 556 45,000  Level Houston Center
Fri 09:48:20 AM 28.4919 -87.3081 288° West 493 567 45,000  Level Houston Center
Fri 09:49:22 AM 28.5336 -87.4572 288° West 493 567 45,000  Level Houston Center
Fri 09:50:25 AM 28.5775 -87.6067 289° West 498 573 45,000  Level Houston Center
Fri 09:51:27 AM 28.6192 -87.7558 288° West 495 570 45,000  Level Houston Center
Fri 09:52:29 AM 28.6625 -87.9056 288° West 496 571 45,000  Level Houston Center
Fri 09:53:31 AM 28.7114 -88.0803 288° West 497 572 45,000  Level Houston Center
Fri 09:54:33 AM 28.7503 -88.2172 288° West 498 573 45,000 -48 Level Houston Center
Fri 09:55:35 AM 28.7967 -88.3994 286° West 498 573 44,900  Descending Houston Center
Fri 09:56:37 AM 28.8278 -88.5550 283° West 499 574 45,000 48 Climbing Houston Center
Fri 09:57:39 AM 28.8592 -88.7094 283° West 500 575 45,000  Level Houston Center
Fri 09:58:41 AM 28.8906 -88.8647 283° West 501 577 45,000  Level Houston Center
Fri 09:59:43 AM 28.9203 -89.0189 282° West 501 577 45,000  Level Houston Center
Fri 10:00:45 AM 28.9506 -89.1719 283° West 499 574 45,000  Level Houston Center
Fri 10:01:48 AM 28.9864 -89.3581 282° West 499 574 45,000  Level Houston Center
Fri 10:02:50 AM 29.0172 -89.5136 283° West 499 574 45,000  Level Houston Center
Fri 10:03:52 AM 29.0475 -89.6711 282° West 507 583 45,000  Level Houston Center
Fri 10:04:54 AM 29.0772 -89.8261 282° West 500 575 45,000  Level Houston Center
Fri 10:05:56 AM 29.1072 -89.9822 282° West 501 577 45,000 -48 Level Houston Center
Fri 10:06:58 AM 29.1367 -90.1381 282° West 501 577 44,900  Descending Houston Center
Fri 10:08:00 AM 29.1731 -90.3269 282° West 503 579 45,000 48 Climbing Houston Center
Fri 10:09:02 AM 29.2022 -90.4833 282° West 504 580 45,000  Level Houston Center
Fri 10:10:05 AM 29.2317 -90.6414 282° West 504 580 45,000  Level Houston Center
Fri 10:11:07 AM 29.2608 -90.7986 282° West 504 580 45,000  Level Houston Center
Fri 10:12:09 AM 29.2900 -90.9567 282° West 509 586 45,000  Level Houston Center
Fri 10:13:11 AM 29.3186 -91.1139 282° West 507 583 45,000  Level Houston Center
Fri 10:14:13 AM 29.3525 -91.3017 282° West 504 580 45,000  Level Houston Center
Fri 10:15:15 AM 29.3806 -91.4586 282° West 503 579 45,000  Level Houston Center
Fri 10:16:18 AM 29.4097 -91.6156 282° West 503 579 45,000  Level Houston Center
Fri 10:17:20 AM 29.4389 -91.7853 281° West 503 579 45,000 -48 Level Houston Center
Fri 10:18:22 AM 29.4661 -91.9422 281° West 503 579 44,900  Descending Houston Center
Fri 10:19:24 AM 29.4950 -92.0997 282° West 503 579 45,000 48 Climbing Houston Center
Fri 10:20:26 AM 29.5219 -92.2586 281° West 504 580 45,000  Level Houston Center
Fri 10:21:28 AM 29.5486 -92.4169 281° West 505 581 45,000 -48 Level Houston Center
Fri 10:22:31 AM 29.5814 -92.6072 281° West 506 582 44,900  Descending Houston Center
Fri 10:23:33 AM 29.6075 -92.7653 281° West 505 581 45,000 48 Climbing Houston Center
Fri 10:24:35 AM 29.6350 -92.9244 281° West 506 582 45,000  Level Houston Center
Fri 10:25:37 AM 29.6614 -93.0831 281° West 505 581 45,000  Level Houston Center
Fri 10:26:39 AM 29.6875 -93.2422 281° West 505 581 45,000  Level Houston Center
Fri 10:27:41 AM 29.7131 -93.4025 280° West 506 582 45,000  Level Houston Center
Fri 10:28:44 AM 29.7392 -93.5628 281° West 506 582 45,000  Level Houston Center
Fri 10:29:46 AM 29.7714 -93.7575 281° West 512 589 45,000  Level Houston Center
Fri 10:30:48 AM 29.7978 -93.9181 281° West 510 587 45,000  Level Houston Center
Fri 10:31:50 AM 29.8239 -94.0789 281° West 510 587 45,000  Level Houston Center
Fri 10:32:52 AM 29.8494 -94.2447 280° West 510 587 45,000  Level Houston Center
Fri 10:33:55 AM 29.8739 -94.4056 280° West 510 587 45,000  Level Houston Center
Fri 10:34:57 AM 29.8992 -94.5653 280° West 510 587 45,000  Level Houston Center
Fri 10:35:59 AM 29.9233 -94.7256 280° West 510 587 45,000  Level Houston Center
Fri 10:37:01 AM 29.9522 -94.9164 280° West 510 587 45,000  Level Houston Center
Fri 10:38:03 AM 29.9769 -95.0767 280° West 510 587 45,000  Level Houston Center
Fri 10:39:05 AM 30.0011 -95.2367 280° West 511 588 45,000  Level Houston Center
Fri 10:40:08 AM 30.0242 -95.3958 280° West 511 588 45,000  Level Houston Center
Fri 10:41:10 AM 30.0525 -95.5892 280° West 511 588 45,000  Level Houston Center
Fri 10:42:12 AM 30.0753 -95.7492 279° West 511 588 45,000  Level Houston Center
Fri 10:43:14 AM 30.0992 -95.9097 280° West 511 588 45,000  Level Houston Center
Fri 10:44:16 AM 30.1228 -96.0756 279° West 512 589 45,000  Level Houston Center
Fri 10:45:18 AM 30.1481 -96.2517 279° West 512 589 45,000  Level Houston Center
Fri 10:46:21 AM 30.1700 -96.4150 279° West 513 590 45,000  Level Houston Center
Fri 10:47:23 AM 30.1964 -96.5767 281° West 513 590 45,000  Level Houston Center
Fri 10:48:25 AM 30.2297 -96.7369 284° West 513 590 45,000  Level Houston Center
Fri 10:49:27 AM 30.2700 -96.9308 284° West 513 590 45,000  Level Houston Center
Fri 10:50:29 AM 30.3019 -97.0928 283° West 513 590 45,000  Level Houston Center
Fri 10:51:31 AM 30.3347 -97.2542 283° West 513 590 45,000  Level Houston Center
Fri 10:52:34 AM 30.3675 -97.4169 283° West 513 590 45,000  Level Houston Center
Fri 10:53:36 AM 30.4000 -97.5797 283° West 513 590 45,000  Level Houston Center
Fri 10:54:38 AM 30.4325 -97.7408 283° West 514 592 45,000  Level Houston Center
Fri 10:55:40 AM 30.4644 -97.9031 283° West 514 592 45,000  Level Houston Center
Fri 10:56:42 AM 30.5028 -98.0983 283° West 514 592 45,000  Level Houston Center
Fri 10:57:44 AM 30.5342 -98.2594 283° West 514 592 45,000  Level Houston Center
Fri 10:58:47 AM 30.5653 -98.4211 283° West 514 592 45,000  Level Houston Center
Fri 10:59:49 AM 30.5964 -98.5828 283° West 514 592 45,000  Level Houston Center
Fri 11:00:51 AM 30.6264 -98.7444 282° West 513 590 45,000  Level Houston Center
Fri 11:01:53 AM 30.6575 -98.9075 283° West 514 592 45,000  Level Houston Center
Fri 11:02:55 AM 30.6944 -99.1014 283° West 514 592 45,000  Level Houston Center
Fri 11:03:57 AM 30.7208 -99.2428 282° West 514 592 45,000  Level Houston Center
Fri 11:05:00 AM 30.7567 -99.4378 282° West 515 593 45,000  Level Houston Center
Fri 11:06:02 AM 30.7864 -99.5997 282° West 515 593 45,000  Level Houston Center
Fri 11:07:04 AM 30.8153 -99.7625 282° West 515 593 45,000  Level Houston Center
Fri 11:08:06 AM 30.8447 -99.9256 282° West 516 594 45,000  Level Houston Center
Fri 11:09:08 AM 30.8728 -100.0875 281° West 516 594 45,000  Level Houston Center
Fri 11:10:11 AM 30.9083 -100.2831 282° West 516 594 45,000  Level Houston Center
Fri 11:11:13 AM 30.9375 -100.4453 282° West 516 594 45,000  Level Houston Center
Fri 11:12:15 AM 30.9656 -100.6092 281° West 516 594 45,000  Level Houston Center
Fri 11:13:17 AM 30.9933 -100.7731 281° West 518 596 45,000  Level Houston Center
Fri 11:14:19 AM 31.0222 -100.9381 282° West 520 598 45,000  Level Houston Center
Fri 11:15:21 AM 31.0558 -101.1353 281° West 519 597 45,000  Level Houston Center
Fri 11:16:24 AM 31.0839 -101.3006 281° West 519 597 45,000  Level Houston Center
Fri 11:17:26 AM 31.1086 -101.4511 281° West 519 597 45,000  Level Houston Center
Fri 11:18:28 AM 31.1403 -101.6489 281° West 519 597 45,000  Level Houston Center
Fri 11:19:30 AM 31.1683 -101.8136 281° West 519 597 45,000  Level Houston Center
Fri 11:20:18 AM 31.1886 -101.9414 281° West 520 598 45,000  Level Albuquerque Center
Fri 11:21:20 AM 31.2156 -102.1142 280° West 529 609 45,000  Level Albuquerque Center
Fri 11:22:22 AM 31.2414 -102.2808 280° West 522 601 45,000  Level Albuquerque Center
Fri 11:23:24 AM 31.2683 -102.4461 281° West 521 600 45,000  Level Albuquerque Center
Fri 11:24:27 AM 31.2961 -102.6278 280° West 521 600 45,000  Level Albuquerque Center
Fri 11:25:29 AM 31.3219 -102.7922 280° West 520 598 45,000  Level Albuquerque Center
Fri 11:26:31 AM 31.3478 -102.9583 280° West 519 597 45,000  Level Albuquerque Center
Fri 11:27:33 AM 31.3786 -103.1564 280° West 519 597 45,000  Level Albuquerque Center
Fri 11:28:35 AM 31.4033 -103.3222 280° West 519 597 45,000  Level Albuquerque Center
Fri 11:29:37 AM 31.4281 -103.4867 280° West 518 596 45,000  Level Albuquerque Center
Fri 11:30:39 AM 31.4508 -103.6514 279° West 518 596 45,000  Level Albuquerque Center
Fri 11:31:41 AM 31.4767 -103.8231 280° West 517 595 45,000  Level Albuquerque Center
Fri 11:32:44 AM 31.5008 -103.9864 280° West 516 594 45,000  Level Albuquerque Center
Fri 11:33:46 AM 31.5253 -104.1522 280° West 516 594 45,000  Level Albuquerque Center
Fri 11:34:48 AM 31.5544 -104.3506 280° West 517 595 45,000  Level Albuquerque Center
Fri 11:35:50 AM 31.5783 -104.5167 280° West 517 595 45,000  Level Albuquerque Center
Fri 11:36:52 AM 31.6022 -104.6817 280° West 517 595 45,000  Level Albuquerque Center
Fri 11:37:54 AM 31.6244 -104.8472 279° West 518 596 45,000  Level Albuquerque Center
Fri 11:38:56 AM 31.6486 -105.0158 280° West 520 598 45,000  Level Albuquerque Center
Fri 11:39:58 AM 31.6761 -105.2175 279° West 522 601 45,000  Level Albuquerque Center
Fri 11:41:01 AM 31.6986 -105.3825 279° West 522 601 45,000  Level Albuquerque Center
Fri 11:42:03 AM 31.7208 -105.5497 279° West 522 601 45,000  Level Albuquerque Center
Fri 11:43:05 AM 31.7422 -105.7178 279° West 522 601 45,000  Level Albuquerque Center
Fri 11:44:07 AM 31.7644 -105.8847 279° West 522 601 45,000  Level Albuquerque Center
Fri 11:45:09 AM 31.7911 -106.0864 279° West 522 601 45,000  Level Albuquerque Center
Fri 11:46:11 AM 31.8139 -106.2558 279° West 524 603 45,000 -48 Level Albuquerque Center
Fri 11:47:13 AM 31.8619 -106.4192 289° West 532 612 44,900  Descending Albuquerque Center
Fri 11:48:16 AM 31.9208 -106.5781 294° West 524 603 45,000 48 Climbing Albuquerque Center
Fri 11:49:18 AM 31.9761 -106.7333 293° West 517 595 45,000  Level Albuquerque Center
Fri 11:50:20 AM 32.0311 -106.8900 293° West 516 594 45,000  Level Albuquerque Center
Fri 11:51:22 AM 32.0956 -107.0789 292° West 516 594 45,000  Level Albuquerque Center
Fri 11:52:24 AM 32.1492 -107.2369 292° West 516 594 45,000  Level Albuquerque Center
Fri 11:53:26 AM 32.2036 -107.3994 292° West 514 592 45,000  Level Albuquerque Center
Fri 11:54:28 AM 32.2564 -107.5511 292° West 514 592 45,000  Level Albuquerque Center
Fri 11:55:30 AM 32.3136 -107.7053 294° West 512 589 45,000  Level Albuquerque Center
Fri 11:56:33 AM 32.3756 -107.8592 296° West 512 589 45,000  Level Albuquerque Center
Fri 11:57:35 AM 32.4347 -108.0128 295° West 512 589 45,000  Level Albuquerque Center
Fri 11:58:37 AM 32.4978 -108.1669 296° West 512 589 45,000  Level Albuquerque Center
Fri 11:59:39 AM 32.5611 -108.3539 292° West 512 589 45,000  Level Albuquerque Center
Fri 12:00:41 PM 32.6094 -108.5119 290° West 512 589 45,000  Level Albuquerque Center
Fri 12:01:43 PM 32.6581 -108.6692 290° West 511 588 45,000  Level Albuquerque Center
Fri 12:02:45 PM 32.7061 -108.8239 290° West 508 585 45,000  Level Albuquerque Center
Fri 12:03:48 PM 32.7569 -108.9797 291° West 508 585 45,000  Level Albuquerque Center
Fri 12:04:50 PM 32.8044 -109.1456 289° West 504 580 45,000  Level Albuquerque Center
Fri 12:05:52 PM 32.8542 -109.3022 291° West 502 578 45,000  Level Albuquerque Center
Fri 12:06:54 PM 32.9125 -109.4900 290° West 501 577 45,000  Level Albuquerque Center
Fri 12:07:56 PM 32.9606 -109.6472 290° West 504 580 45,000  Level Albuquerque Center
Fri 12:08:58 PM 33.0078 -109.8008 290° West 500 575 45,000  Level Albuquerque Center
Fri 12:10:00 PM 33.0544 -109.9558 290° West 499 574 45,000  Level Albuquerque Center
Fri 12:11:03 PM 33.1022 -110.1103 290° West 499 574 45,000  Level Albuquerque Center
Fri 12:12:05 PM 33.1461 -110.2661 289° West 498 573 45,000  Level Albuquerque Center
Fri 12:13:07 PM 33.2017 -110.4528 290° West 498 573 45,000  Level Albuquerque Center
Fri 12:14:09 PM 33.2500 -110.6069 291° West 498 573 45,000  Level Albuquerque Center
Fri 12:15:11 PM 33.2978 -110.7583 291° West 498 573 45,000  Level Albuquerque Center
Fri 12:16:13 PM 33.3447 -110.9122 290° West 497 572 45,000  Level Albuquerque Center
Fri 12:17:15 PM 33.3922 -111.0650 290° West 494 568 45,000  Level Albuquerque Center
Fri 12:18:18 PM 33.4406 -111.2208 290° West 495 570 45,000  Level Albuquerque Center
Fri 12:19:20 PM 33.4978 -111.4083 290° West 497 572 45,000  Level Albuquerque Center
Fri 12:20:22 PM 33.5447 -111.5661 290° West 498 573 45,000  Level Albuquerque Center
Fri 12:21:24 PM 33.5925 -111.7253 290° West 501 577 45,000  Level Albuquerque Center
Fri 12:22:26 PM 33.6408 -111.8853 290° West 502 578 45,000  Level Albuquerque Center
Fri 12:23:28 PM 33.6881 -112.0444 290° West 502 578 45,000  Level Albuquerque Center
Fri 12:24:30 PM 33.7361 -112.2036 290° West 502 578 45,000  Level Albuquerque Center
Fri 12:25:33 PM 33.7831 -112.3631 290° West 502 578 45,000  Level Albuquerque Center
Fri 12:26:35 PM 33.8392 -112.5547 289° West 503 579 45,000  Level Albuquerque Center
Fri 12:27:37 PM 33.8847 -112.7136 289° West 503 579 45,000  Level Albuquerque Center
Fri 12:28:39 PM 33.9314 -112.8717 290° West 502 578 45,000  Level Albuquerque Center
Fri 12:29:41 PM 33.9775 -113.0292 289° West 502 578 45,000  Level Albuquerque Center
Fri 12:30:43 PM 34.0231 -113.1872 289° West 501 577 45,000  Level Albuquerque Center
Fri 12:31:45 PM 34.0681 -113.3436 289° West 500 575 45,000  Level Albuquerque Center
Fri 12:32:48 PM 34.1217 -113.5325 289° West 497 572 45,000  Level Albuquerque Center
Fri 12:33:50 PM 34.1644 -113.6867 289° West 496 571 45,000  Level Albuquerque Center
Fri 12:34:52 PM 34.2072 -113.8464 288° West 496 571 45,000  Level Albuquerque Center
Fri 12:35:54 PM 34.2522 -114.0014 289° West 495 570 45,000 -194 Level Albuquerque Center
Fri 12:36:56 PM 34.2919 -114.1575 287° West 490 564 44,600 -1,065 Descending Albuquerque Center
Fri 12:37:58 PM 34.3347 -114.3500 285° West 489 563 42,800 -1,597 Descending Albuquerque Center
Fri 12:39:00 PM 34.3703 -114.5106 285° West 489 563 41,300 -1,105 Descending Albuquerque Center
Fri 12:40:30 PM 34.4256 -114.7508 286° West 495 570 40,000 -513 Descending Los Angeles Center
Fri 12:41:32 PM 34.4625 -114.9153 285° West 503 579 40,000  Level Los Angeles Center
Fri 12:42:35 PM 34.5092 -115.0769 289° West 509 586 40,000  Level Los Angeles Center
Fri 12:43:37 PM 34.5594 -115.2386 291° West 513 590 40,000 -194 Level Los Angeles Center
Fri 12:44:39 PM 34.6097 -115.3978 291° West 512 589 39,600 -919 Descending Los Angeles Center
Fri 12:45:41 PM 34.6658 -115.5725 291° West 499 574 38,100 -1,742 Descending Los Angeles Center
Fri 12:46:43 PM 34.7156 -115.7253 292° West 489 563 36,000 -3,194 Descending Los Angeles Center
Fri 12:47:45 PM 34.7653 -115.8844 291° West 493 567 31,500 -3,339 Descending Los Angeles Center
Fri 12:48:47 PM 34.7850 -116.0433 279° West 485 558 29,100 -2,256 Descending Los Angeles Center
Fri 12:49:50 PM 34.7900 -116.2242 272° West 466 536 26,800 -2,160 Descending Los Angeles Center
Fri 12:50:52 PM 34.7936 -116.3919 272° West 464 534 24,600 -1,694 Descending Los Angeles Center
Fri 12:51:54 PM 34.7900 -116.5464 268° West 464 534 23,300 -1,113 Descending Los Angeles Center
Fri 12:52:56 PM 34.7733 -116.6961 262° West 455 524 22,300 -1,016 Descending Los Angeles Center
Fri 12:53:58 PM 34.7589 -116.8464 263° West 454 522 21,200 -1,113 Descending Los Angeles Center
Fri 12:55:00 PM 34.7414 -117.0239 263° West 458 527 20,000 -581 Descending Los Angeles Center
Fri 12:56:02 PM 34.7256 -117.1744 263° West 458 527 20,000  Level Los Angeles Center
Fri 12:57:04 PM 34.7094 -117.3275 263° West 440 506 20,000 -97 Level Los Angeles Center
Fri 12:58:06 PM 34.6944 -117.4722 263° West 437 503 19,800 -1,152 Descending Los Angeles Center
Fri 12:59:09 PM 34.6800 -117.6164 263° West 434 499 17,600 -2,208 Descending Los Angeles Center
Fri 01:00:11 PM 34.6642 -117.7639 263° West 437 503 15,200 -1,742 Descending Los Angeles Center
Fri 01:01:13 PM 34.6481 -117.9133 263° West 392 451 14,000 -1,161 Descending Los Angeles Center
Fri 01:02:15 PM 34.6358 -118.0258 263° West 347 399 12,800 -1,161 Descending Los Angeles Center
Fri 01:03:17 PM 34.6178 -118.1217 257° West 300 345 11,600 -1,258 Descending Los Angeles Center
Fri 01:04:19 PM 34.5967 -118.2158 255° West 294 338 10,200 -1,403 Descending Los Angeles Center
Fri 01:05:21 PM 34.5767 -118.3081 255° West 288 331 8,700 -1,065 Descending Los Angeles Center
Fri 01:06:23 PM 34.5539 -118.4111 255° West 264 304 8,000 -336 Descending Los Angeles Center
Fri 01:07:26 PM 34.5358 -118.4783 252° West 219 252 8,000 -720 Level Los Angeles Center
Fri 01:08:28 PM 34.4836 -118.5061 204° Southwest 212 244 6,500 -1,452 Descending Los Angeles Center
Fri 01:09:30 PM 34.4233 -118.5139 186° South 219 252 5,000 -871 Descending Los Angeles Center
Fri 01:10:32 PM 34.3694 -118.5039 171° South 194 223 4,700 -677 Descending Los Angeles Center
Fri 01:11:34 PM 34.3231 -118.5017 178° South 141 162 3,600 -1,016 Descending Los Angeles Center
Fri 01:12:36 PM 34.2842 -118.4956 173° South 140 161 2,600 -912 Descending Los Angeles Center
Fri 01:13:39 PM 34.2467 -118.4944 179° South 139 160 1,700 -768 Descending Los Angeles Center
Fri 01:14:41 PM 34.2122 -118.4917 176° South 138 159 1,000 -677 Descending Los Angeles Center
Fri 01:16:00 PM 34.2098 -118.4900 180° South  Level Estimated
Fri 01:23:00 PM 34.2098 -118.4900 180° South  Level Estimated

Login

Don't have an account? Register now (free) for customized features, flight alerts, and more!